sensor_id;sensor_type;location;lat;lon;timestamp;P1;durP1;ratioP1;P2;durP2;ratioP2
956;SDS011;465;48.802;9.224;2022-10-13T00:01:13;30.07;;;21.77;;
956;SDS011;465;48.802;9.224;2022-10-13T00:03:42;28.83;;;21.97;;
956;SDS011;465;48.802;9.224;2022-10-13T00:06:10;27.57;;;20.37;;
956;SDS011;465;48.802;9.224;2022-10-13T00:08:37;25.33;;;20.60;;
956;SDS011;465;48.802;9.224;2022-10-13T00:11:08;22.53;;;19.53;;
956;SDS011;465;48.802;9.224;2022-10-13T00:13:36;27.13;;;22.77;;
956;SDS011;465;48.802;9.224;2022-10-13T00:16:05;27.23;;;21.13;;
956;SDS011;465;48.802;9.224;2022-10-13T00:18:33;29.53;;;21.20;;
956;SDS011;465;48.802;9.224;2022-10-13T00:20:59;26.40;;;20.63;;
956;SDS011;465;48.802;9.224;2022-10-13T00:23:26;24.97;;;20.70;;
956;SDS011;465;48.802;9.224;2022-10-13T00:25:53;31.33;;;21.47;;
956;SDS011;465;48.802;9.224;2022-10-13T00:28:20;26.10;;;19.33;;
956;SDS011;465;48.802;9.224;2022-10-13T00:30:46;23.77;;;19.93;;
956;SDS011;465;48.802;9.224;2022-10-13T00:33:15;27.97;;;22.13;;
956;SDS011;465;48.802;9.224;2022-10-13T00:35:42;28.47;;;20.60;;
956;SDS011;465;48.802;9.224;2022-10-13T00:38:09;29.80;;;21.20;;
956;SDS011;465;48.802;9.224;2022-10-13T00:40:43;25.53;;;22.10;;
956;SDS011;465;48.802;9.224;2022-10-13T00:43:15;30.13;;;23.40;;
956;SDS011;465;48.802;9.224;2022-10-13T00:45:42;28.03;;;21.87;;
956;SDS011;465;48.802;9.224;2022-10-13T00:48:10;29.70;;;23.73;;
956;SDS011;465;48.802;9.224;2022-10-13T00:50:38;29.73;;;22.57;;
956;SDS011;465;48.802;9.224;2022-10-13T00:53:07;25.47;;;22.73;;
956;SDS011;465;48.802;9.224;2022-10-13T00:55:36;27.60;;;22.27;;
956;SDS011;465;48.802;9.224;2022-10-13T00:58:05;29.53;;;23.10;;
956;SDS011;465;48.802;9.224;2022-10-13T01:00:34;34.93;;;22.57;;
956;SDS011;465;48.802;9.224;2022-10-13T01:03:01;28.27;;;23.13;;
956;SDS011;465;48.802;9.224;2022-10-13T01:05:28;31.00;;;25.90;;
956;SDS011;465;48.802;9.224;2022-10-13T01:07:57;28.30;;;21.77;;
956;SDS011;465;48.802;9.224;2022-10-13T01:10:28;33.13;;;25.47;;
956;SDS011;465;48.802;9.224;2022-10-13T01:13:06;36.53;;;26.00;;
956;SDS011;465;48.802;9.224;2022-10-13T01:15:39;34.33;;;24.43;;
956;SDS011;465;48.802;9.224;2022-10-13T01:18:12;32.30;;;25.13;;
956;SDS011;465;48.802;9.224;2022-10-13T01:29:51;32.50;;;24.87;;
956;SDS011;465;48.802;9.224;2022-10-13T01:32:30;29.30;;;23.00;;
956;SDS011;465;48.802;9.224;2022-10-13T01:35:07;34.50;;;26.07;;
956;SDS011;465;48.802;9.224;2022-10-13T01:37:39;31.37;;;24.33;;
956;SDS011;465;48.802;9.224;2022-10-13T01:40:11;31.70;;;25.20;;
956;SDS011;465;48.802;9.224;2022-10-13T01:42:45;31.03;;;23.97;;
956;SDS011;465;48.802;9.224;2022-10-13T01:45:20;31.70;;;25.83;;
956;SDS011;465;48.802;9.224;2022-10-13T01:47:51;36.23;;;25.97;;
956;SDS011;465;48.802;9.224;2022-10-13T01:50:18;33.53;;;25.70;;
956;SDS011;465;48.802;9.224;2022-10-13T01:52:46;34.93;;;26.10;;
956;SDS011;465;48.802;9.224;2022-10-13T01:55:14;42.70;;;26.43;;
956;SDS011;465;48.802;9.224;2022-10-13T01:57:42;34.50;;;25.60;;
956;SDS011;465;48.802;9.224;2022-10-13T02:00:10;35.40;;;26.90;;
956;SDS011;465;48.802;9.224;2022-10-13T02:02:42;37.80;;;27.57;;
956;SDS011;465;48.802;9.224;2022-10-13T02:05:19;30.37;;;23.73;;
956;SDS011;465;48.802;9.224;2022-10-13T02:07:53;35.83;;;25.33;;
956;SDS011;465;48.802;9.224;2022-10-13T02:10:25;32.23;;;24.97;;
956;SDS011;465;48.802;9.224;2022-10-13T02:12:58;33.20;;;26.63;;
956;SDS011;465;48.802;9.224;2022-10-13T02:15:27;37.73;;;27.60;;
956;SDS011;465;48.802;9.224;2022-10-13T02:17:59;36.70;;;25.10;;
956;SDS011;465;48.802;9.224;2022-10-13T02:20:27;32.67;;;27.27;;
956;SDS011;465;48.802;9.224;2022-10-13T02:22:54;31.83;;;24.47;;
956;SDS011;465;48.802;9.224;2022-10-13T02:25:24;38.03;;;26.63;;
956;SDS011;465;48.802;9.224;2022-10-13T02:27:52;33.73;;;25.93;;
956;SDS011;465;48.802;9.224;2022-10-13T02:30:20;38.13;;;25.60;;
956;SDS011;465;48.802;9.224;2022-10-13T02:32:47;28.97;;;24.97;;
956;SDS011;465;48.802;9.224;2022-10-13T02:35:16;34.17;;;24.10;;
956;SDS011;465;48.802;9.224;2022-10-13T02:37:42;29.53;;;24.23;;
956;SDS011;465;48.802;9.224;2022-10-13T02:40:10;32.63;;;24.00;;
956;SDS011;465;48.802;9.224;2022-10-13T02:42:37;31.63;;;24.77;;
956;SDS011;465;48.802;9.224;2022-10-13T02:45:04;28.30;;;23.53;;
956;SDS011;465;48.802;9.224;2022-10-13T02:47:32;28.23;;;24.80;;
956;SDS011;465;48.802;9.224;2022-10-13T02:49:59;36.93;;;27.63;;
956;SDS011;465;48.802;9.224;2022-10-13T02:52:27;29.87;;;24.97;;
956;SDS011;465;48.802;9.224;2022-10-13T02:54:54;32.83;;;23.50;;
956;SDS011;465;48.802;9.224;2022-10-13T02:57:21;28.13;;;23.97;;
956;SDS011;465;48.802;9.224;2022-10-13T02:59:48;38.00;;;24.90;;
956;SDS011;465;48.802;9.224;2022-10-13T03:02:15;26.67;;;23.33;;
956;SDS011;465;48.802;9.224;2022-10-13T03:04:42;32.10;;;23.83;;
956;SDS011;465;48.802;9.224;2022-10-13T03:07:09;31.40;;;24.57;;
956;SDS011;465;48.802;9.224;2022-10-13T03:09:37;28.90;;;22.50;;
956;SDS011;465;48.802;9.224;2022-10-13T03:12:04;33.20;;;23.57;;
956;SDS011;465;48.802;9.224;2022-10-13T03:14:31;35.40;;;24.70;;
956;SDS011;465;48.802;9.224;2022-10-13T03:16:59;34.30;;;25.27;;
956;SDS011;465;48.802;9.224;2022-10-13T03:19:26;32.23;;;23.77;;
956;SDS011;465;48.802;9.224;2022-10-13T03:21:53;31.40;;;23.97;;
956;SDS011;465;48.802;9.224;2022-10-13T03:24:19;27.30;;;22.33;;
956;SDS011;465;48.802;9.224;2022-10-13T03:26:47;29.20;;;23.30;;
956;SDS011;465;48.802;9.224;2022-10-13T03:29:15;29.60;;;24.53;;
956;SDS011;465;48.802;9.224;2022-10-13T03:31:43;28.87;;;23.20;;
956;SDS011;465;48.802;9.224;2022-10-13T03:34:10;31.97;;;23.80;;
956;SDS011;465;48.802;9.224;2022-10-13T03:36:38;27.37;;;22.50;;
956;SDS011;465;48.802;9.224;2022-10-13T03:39:05;28.60;;;20.93;;
956;SDS011;465;48.802;9.224;2022-10-13T03:41:32;26.10;;;20.53;;
956;SDS011;465;48.802;9.224;2022-10-13T03:44:00;25.30;;;21.43;;
956;SDS011;465;48.802;9.224;2022-10-13T03:46:27;29.63;;;21.80;;
956;SDS011;465;48.802;9.224;2022-10-13T03:48:55;31.67;;;22.40;;
956;SDS011;465;48.802;9.224;2022-10-13T03:51:22;25.23;;;20.67;;
956;SDS011;465;48.802;9.224;2022-10-13T03:53:50;30.37;;;22.50;;
956;SDS011;465;48.802;9.224;2022-10-13T03:56:18;27.40;;;20.47;;
956;SDS011;465;48.802;9.224;2022-10-13T03:58:47;27.07;;;19.97;;
956;SDS011;465;48.802;9.224;2022-10-13T04:01:19;28.50;;;20.87;;
956;SDS011;465;48.802;9.224;2022-10-13T04:03:47;24.50;;;20.30;;
956;SDS011;465;48.802;9.224;2022-10-13T04:06:14;24.90;;;19.00;;
956;SDS011;465;48.802;9.224;2022-10-13T04:08:41;26.70;;;20.17;;
956;SDS011;465;48.802;9.224;2022-10-13T04:11:09;22.23;;;18.67;;
956;SDS011;465;48.802;9.224;2022-10-13T04:13:39;20.97;;;18.67;;
956;SDS011;465;48.802;9.224;2022-10-13T04:16:07;24.27;;;19.43;;
956;SDS011;465;48.802;9.224;2022-10-13T04:18:41;23.67;;;18.87;;
956;SDS011;465;48.802;9.224;2022-10-13T04:21:08;19.80;;;17.63;;
956;SDS011;465;48.802;9.224;2022-10-13T04:23:35;24.60;;;19.53;;
956;SDS011;465;48.802;9.224;2022-10-13T04:26:02;26.47;;;20.37;;
956;SDS011;465;48.802;9.224;2022-10-13T04:28:30;22.33;;;17.50;;
956;SDS011;465;48.802;9.224;2022-10-13T04:30:59;21.23;;;17.33;;
956;SDS011;465;48.802;9.224;2022-10-13T04:33:26;22.47;;;19.87;;
956;SDS011;465;48.802;9.224;2022-10-13T04:35:55;23.87;;;18.67;;
956;SDS011;465;48.802;9.224;2022-10-13T04:38:22;23.93;;;17.90;;
956;SDS011;465;48.802;9.224;2022-10-13T04:40:48;23.40;;;18.00;;
956;SDS011;465;48.802;9.224;2022-10-13T04:43:15;25.70;;;18.23;;
956;SDS011;465;48.802;9.224;2022-10-13T04:45:42;28.30;;;20.20;;
956;SDS011;465;48.802;9.224;2022-10-13T04:48:09;27.33;;;21.93;;
956;SDS011;465;48.802;9.224;2022-10-13T04:50:35;26.50;;;20.20;;
956;SDS011;465;48.802;9.224;2022-10-13T04:53:04;31.70;;;21.60;;
956;SDS011;465;48.802;9.224;2022-10-13T04:55:30;24.87;;;20.03;;
956;SDS011;465;48.802;9.224;2022-10-13T04:57:59;24.67;;;20.90;;
956;SDS011;465;48.802;9.224;2022-10-13T05:00:26;32.30;;;23.40;;
956;SDS011;465;48.802;9.224;2022-10-13T05:02:53;31.93;;;22.43;;
956;SDS011;465;48.802;9.224;2022-10-13T05:05:20;24.97;;;21.27;;
956;SDS011;465;48.802;9.224;2022-10-13T05:07:46;23.67;;;20.40;;
956;SDS011;465;48.802;9.224;2022-10-13T05:10:14;28.57;;;21.07;;
956;SDS011;465;48.802;9.224;2022-10-13T05:12:41;31.50;;;21.33;;
956;SDS011;465;48.802;9.224;2022-10-13T05:15:08;25.40;;;19.50;;
956;SDS011;465;48.802;9.224;2022-10-13T05:17:35;28.23;;;20.87;;
956;SDS011;465;48.802;9.224;2022-10-13T05:20:02;25.77;;;17.87;;
956;SDS011;465;48.802;9.224;2022-10-13T05:22:29;22.10;;;18.13;;
956;SDS011;465;48.802;9.224;2022-10-13T05:24:56;22.13;;;19.07;;
956;SDS011;465;48.802;9.224;2022-10-13T05:27:24;26.20;;;19.40;;
956;SDS011;465;48.802;9.224;2022-10-13T05:29:51;25.07;;;19.37;;
956;SDS011;465;48.802;9.224;2022-10-13T05:32:17;26.73;;;19.40;;
956;SDS011;465;48.802;9.224;2022-10-13T05:34:46;27.97;;;19.77;;
956;SDS011;465;48.802;9.224;2022-10-13T05:37:13;24.13;;;19.47;;
956;SDS011;465;48.802;9.224;2022-10-13T05:39:41;28.67;;;21.10;;
956;SDS011;465;48.802;9.224;2022-10-13T05:42:07;22.70;;;18.40;;
956;SDS011;465;48.802;9.224;2022-10-13T05:44:35;26.07;;;18.10;;
956;SDS011;465;48.802;9.224;2022-10-13T05:47:02;24.77;;;18.10;;
956;SDS011;465;48.802;9.224;2022-10-13T05:49:29;24.97;;;18.10;;
956;SDS011;465;48.802;9.224;2022-10-13T05:51:56;29.30;;;18.47;;
956;SDS011;465;48.802;9.224;2022-10-13T05:54:26;36.10;;;26.83;;
956;SDS011;465;48.802;9.224;2022-10-13T05:56:56;32.00;;;18.73;;
956;SDS011;465;48.802;9.224;2022-10-13T05:59:26;27.87;;;19.80;;
956;SDS011;465;48.802;9.224;2022-10-13T06:01:56;29.87;;;19.53;;
956;SDS011;465;48.802;9.224;2022-10-13T06:04:23;30.67;;;18.97;;
956;SDS011;465;48.802;9.224;2022-10-13T06:06:55;30.37;;;19.30;;
956;SDS011;465;48.802;9.224;2022-10-13T06:09:22;29.73;;;20.67;;
956;SDS011;465;48.802;9.224;2022-10-13T06:11:48;29.10;;;18.70;;
956;SDS011;465;48.802;9.224;2022-10-13T06:14:15;23.40;;;18.00;;
956;SDS011;465;48.802;9.224;2022-10-13T06:16:42;25.93;;;17.53;;
956;SDS011;465;48.802;9.224;2022-10-13T06:19:10;32.43;;;19.93;;
956;SDS011;465;48.802;9.224;2022-10-13T06:21:37;30.80;;;22.10;;
956;SDS011;465;48.802;9.224;2022-10-13T06:24:04;28.23;;;21.63;;
956;SDS011;465;48.802;9.224;2022-10-13T06:26:31;25.83;;;21.57;;
956;SDS011;465;48.802;9.224;2022-10-13T06:28:57;26.43;;;20.40;;
956;SDS011;465;48.802;9.224;2022-10-13T06:31:24;32.30;;;20.53;;
956;SDS011;465;48.802;9.224;2022-10-13T06:33:51;22.87;;;19.27;;
956;SDS011;465;48.802;9.224;2022-10-13T06:36:19;31.53;;;20.93;;
956;SDS011;465;48.802;9.224;2022-10-13T06:38:46;30.80;;;21.17;;
956;SDS011;465;48.802;9.224;2022-10-13T06:41:12;25.70;;;20.30;;
956;SDS011;465;48.802;9.224;2022-10-13T06:43:39;32.30;;;21.40;;
956;SDS011;465;48.802;9.224;2022-10-13T06:46:06;33.30;;;22.60;;
956;SDS011;465;48.802;9.224;2022-10-13T06:48:33;33.23;;;22.50;;
956;SDS011;465;48.802;9.224;2022-10-13T06:51:00;33.80;;;19.80;;
956;SDS011;465;48.802;9.224;2022-10-13T06:53:29;30.80;;;19.60;;
956;SDS011;465;48.802;9.224;2022-10-13T06:55:56;28.90;;;19.20;;
956;SDS011;465;48.802;9.224;2022-10-13T06:58:23;25.07;;;19.20;;
956;SDS011;465;48.802;9.224;2022-10-13T07:00:50;24.17;;;18.90;;
956;SDS011;465;48.802;9.224;2022-10-13T07:03:17;24.10;;;18.23;;
956;SDS011;465;48.802;9.224;2022-10-13T07:05:44;32.13;;;18.00;;
956;SDS011;465;48.802;9.224;2022-10-13T07:08:11;24.20;;;18.20;;
956;SDS011;465;48.802;9.224;2022-10-13T07:10:39;22.03;;;17.10;;
956;SDS011;465;48.802;9.224;2022-10-13T07:13:06;20.80;;;17.00;;
956;SDS011;465;48.802;9.224;2022-10-13T07:15:35;20.37;;;16.33;;
956;SDS011;465;48.802;9.224;2022-10-13T07:18:02;21.40;;;16.97;;
956;SDS011;465;48.802;9.224;2022-10-13T07:20:29;23.70;;;17.67;;
956;SDS011;465;48.802;9.224;2022-10-13T07:22:56;22.80;;;19.03;;
956;SDS011;465;48.802;9.224;2022-10-13T07:25:23;30.70;;;19.37;;
956;SDS011;465;48.802;9.224;2022-10-13T07:27:51;31.77;;;19.87;;
956;SDS011;465;48.802;9.224;2022-10-13T07:30:18;26.50;;;16.80;;
956;SDS011;465;48.802;9.224;2022-10-13T07:32:45;24.20;;;18.30;;
956;SDS011;465;48.802;9.224;2022-10-13T07:35:11;23.10;;;18.97;;
956;SDS011;465;48.802;9.224;2022-10-13T07:37:38;25.90;;;18.30;;
956;SDS011;465;48.802;9.224;2022-10-13T07:40:05;28.33;;;17.40;;
956;SDS011;465;48.802;9.224;2022-10-13T07:42:33;23.20;;;17.40;;
956;SDS011;465;48.802;9.224;2022-10-13T07:45:01;23.70;;;18.33;;
956;SDS011;465;48.802;9.224;2022-10-13T07:47:28;20.93;;;17.27;;
956;SDS011;465;48.802;9.224;2022-10-13T07:49:55;21.93;;;18.50;;
956;SDS011;465;48.802;9.224;2022-10-13T07:52:22;20.40;;;18.07;;
956;SDS011;465;48.802;9.224;2022-10-13T07:54:48;18.63;;;16.60;;
956;SDS011;465;48.802;9.224;2022-10-13T07:57:16;19.50;;;16.83;;
956;SDS011;465;48.802;9.224;2022-10-13T07:59:43;20.43;;;18.20;;
956;SDS011;465;48.802;9.224;2022-10-13T08:02:11;20.60;;;15.50;;
956;SDS011;465;48.802;9.224;2022-10-13T08:04:38;19.80;;;17.63;;
956;SDS011;465;48.802;9.224;2022-10-13T08:07:05;20.60;;;17.00;;
956;SDS011;465;48.802;9.224;2022-10-13T08:09:32;23.30;;;17.27;;
956;SDS011;465;48.802;9.224;2022-10-13T08:11:59;22.90;;;15.27;;
956;SDS011;465;48.802;9.224;2022-10-13T08:14:26;22.70;;;16.13;;
956;SDS011;465;48.802;9.224;2022-10-13T08:16:53;18.07;;;15.50;;
956;SDS011;465;48.802;9.224;2022-10-13T08:19:21;19.80;;;15.50;;
956;SDS011;465;48.802;9.224;2022-10-13T08:21:50;16.93;;;14.30;;
956;SDS011;465;48.802;9.224;2022-10-13T08:24:17;19.77;;;15.40;;
956;SDS011;465;48.802;9.224;2022-10-13T08:26:46;17.07;;;13.63;;
956;SDS011;465;48.802;9.224;2022-10-13T08:29:14;18.43;;;15.33;;
956;SDS011;465;48.802;9.224;2022-10-13T08:31:41;17.70;;;15.33;;
956;SDS011;465;48.802;9.224;2022-10-13T08:34:08;17.70;;;14.90;;
956;SDS011;465;48.802;9.224;2022-10-13T08:36:36;17.60;;;13.00;;
956;SDS011;465;48.802;9.224;2022-10-13T08:39:04;15.63;;;13.60;;
956;SDS011;465;48.802;9.224;2022-10-13T08:41:34;19.00;;;13.17;;
956;SDS011;465;48.802;9.224;2022-10-13T08:44:04;19.63;;;13.97;;
956;SDS011;465;48.802;9.224;2022-10-13T08:46:38;15.93;;;12.57;;
956;SDS011;465;48.802;9.224;2022-10-13T08:49:12;20.07;;;14.60;;
956;SDS011;465;48.802;9.224;2022-10-13T08:51:42;19.83;;;13.60;;
956;SDS011;465;48.802;9.224;2022-10-13T08:54:09;14.77;;;13.03;;
956;SDS011;465;48.802;9.224;2022-10-13T08:56:39;18.10;;;13.93;;
956;SDS011;465;48.802;9.224;2022-10-13T08:59:08;17.33;;;14.60;;
956;SDS011;465;48.802;9.224;2022-10-13T09:01:40;17.70;;;13.13;;
956;SDS011;465;48.802;9.224;2022-10-13T09:04:15;17.20;;;12.63;;
956;SDS011;465;48.802;9.224;2022-10-13T09:06:54;17.27;;;12.30;;
956;SDS011;465;48.802;9.224;2022-10-13T09:09:23;13.43;;;11.53;;
956;SDS011;465;48.802;9.224;2022-10-13T09:11:50;19.70;;;12.87;;
956;SDS011;465;48.802;9.224;2022-10-13T09:14:21;12.63;;;11.10;;
956;SDS011;465;48.802;9.224;2022-10-13T09:16:51;13.00;;;11.70;;
956;SDS011;465;48.802;9.224;2022-10-13T09:19:20;16.70;;;12.17;;
956;SDS011;465;48.802;9.224;2022-10-13T09:21:49;16.33;;;11.10;;
956;SDS011;465;48.802;9.224;2022-10-13T09:24:19;15.77;;;11.43;;
956;SDS011;465;48.802;9.224;2022-10-13T09:26:48;15.87;;;12.37;;
956;SDS011;465;48.802;9.224;2022-10-13T09:31:50;13.20;;;11.50;;
956;SDS011;465;48.802;9.224;2022-10-13T09:34:32;15.53;;;11.27;;
956;SDS011;465;48.802;9.224;2022-10-13T09:36:59;19.60;;;12.60;;
956;SDS011;465;48.802;9.224;2022-10-13T09:42:19;14.53;;;10.87;;
956;SDS011;465;48.802;9.224;2022-10-13T09:44:48;11.20;;;10.00;;
956;SDS011;465;48.802;9.224;2022-10-13T09:47:22;11.87;;;8.77;;
956;SDS011;465;48.802;9.224;2022-10-13T09:52:40;14.13;;;9.43;;
956;SDS011;465;48.802;9.224;2022-10-13T09:57:56;11.13;;;8.77;;
956;SDS011;465;48.802;9.224;2022-10-13T10:00:29;10.77;;;8.00;;
956;SDS011;465;48.802;9.224;2022-10-13T10:02:57;15.03;;;8.33;;
956;SDS011;465;48.802;9.224;2022-10-13T10:05:31;10.70;;;9.30;;
956;SDS011;465;48.802;9.224;2022-10-13T10:08:10;14.23;;;9.87;;
956;SDS011;465;48.802;9.224;2022-10-13T10:10:41;13.97;;;8.53;;
956;SDS011;465;48.802;9.224;2022-10-13T10:13:09;16.83;;;8.00;;
956;SDS011;465;48.802;9.224;2022-10-13T10:15:40;11.13;;;8.33;;
956;SDS011;465;48.802;9.224;2022-10-13T10:18:22;12.77;;;7.77;;
956;SDS011;465;48.802;9.224;2022-10-13T10:20:58;10.17;;;8.07;;
956;SDS011;465;48.802;9.224;2022-10-13T10:23:34;12.83;;;8.87;;
956;SDS011;465;48.802;9.224;2022-10-13T10:26:11;10.63;;;8.90;;
956;SDS011;465;48.802;9.224;2022-10-13T10:28:46;10.80;;;8.50;;
956;SDS011;465;48.802;9.224;2022-10-13T10:31:25;11.57;;;8.37;;
956;SDS011;465;48.802;9.224;2022-10-13T10:34:05;11.17;;;8.80;;
956;SDS011;465;48.802;9.224;2022-10-13T10:36:46;12.13;;;8.00;;
956;SDS011;465;48.802;9.224;2022-10-13T10:39:20;12.13;;;8.87;;
956;SDS011;465;48.802;9.224;2022-10-13T10:41:57;10.03;;;8.10;;
956;SDS011;465;48.802;9.224;2022-10-13T10:44:28;13.77;;;7.90;;
956;SDS011;465;48.802;9.224;2022-10-13T10:46:58;12.67;;;7.80;;
956;SDS011;465;48.802;9.224;2022-10-13T10:49:28;9.37;;;6.87;;
956;SDS011;465;48.802;9.224;2022-10-13T10:51:57;11.23;;;7.83;;
956;SDS011;465;48.802;9.224;2022-10-13T10:54:30;10.00;;;7.87;;
956;SDS011;465;48.802;9.224;2022-10-13T10:57:08;12.80;;;7.67;;
956;SDS011;465;48.802;9.224;2022-10-13T10:59:46;7.77;;;7.00;;
956;SDS011;465;48.802;9.224;2022-10-13T11:02:28;8.90;;;7.47;;
956;SDS011;465;48.802;9.224;2022-10-13T11:05:02;8.50;;;6.33;;
956;SDS011;465;48.802;9.224;2022-10-13T11:10:20;10.60;;;7.70;;
956;SDS011;465;48.802;9.224;2022-10-13T11:15:52;10.30;;;6.97;;
956;SDS011;465;48.802;9.224;2022-10-13T11:24:52;8.47;;;6.83;;
956;SDS011;465;48.802;9.224;2022-10-13T11:27:27;9.60;;;7.60;;
956;SDS011;465;48.802;9.224;2022-10-13T11:30:04;9.03;;;6.60;;
956;SDS011;465;48.802;9.224;2022-10-13T11:32:53;13.73;;;7.70;;
956;SDS011;465;48.802;9.224;2022-10-13T11:35:23;10.50;;;7.70;;
956;SDS011;465;48.802;9.224;2022-10-13T11:38:00;9.93;;;8.13;;
956;SDS011;465;48.802;9.224;2022-10-13T11:40:39;9.33;;;7.33;;
956;SDS011;465;48.802;9.224;2022-10-13T11:46:13;7.50;;;6.60;;
956;SDS011;465;48.802;9.224;2022-10-13T11:49:09;11.73;;;7.27;;
956;SDS011;465;48.802;9.224;2022-10-13T11:52:02;8.40;;;7.00;;
956;SDS011;465;48.802;9.224;2022-10-13T11:54:38;8.20;;;7.20;;
956;SDS011;465;48.802;9.224;2022-10-13T11:57:21;9.17;;;7.07;;
956;SDS011;465;48.802;9.224;2022-10-13T11:59:50;14.63;;;8.50;;
956;SDS011;465;48.802;9.224;2022-10-13T12:02:19;11.73;;;7.80;;
956;SDS011;465;48.802;9.224;2022-10-13T12:04:59;12.30;;;7.93;;
956;SDS011;465;48.802;9.224;2022-10-13T12:07:31;10.03;;;6.30;;
956;SDS011;465;48.802;9.224;2022-10-13T12:10:00;12.03;;;7.63;;
956;SDS011;465;48.802;9.224;2022-10-13T12:12:31;11.60;;;6.97;;
956;SDS011;465;48.802;9.224;2022-10-13T12:14:57;8.37;;;6.60;;
956;SDS011;465;48.802;9.224;2022-10-13T12:17:27;8.73;;;6.90;;
956;SDS011;465;48.802;9.224;2022-10-13T12:19:56;9.33;;;6.70;;
956;SDS011;465;48.802;9.224;2022-10-13T12:22:26;6.97;;;6.17;;
956;SDS011;465;48.802;9.224;2022-10-13T12:24:57;7.47;;;6.40;;
956;SDS011;465;48.802;9.224;2022-10-13T12:27:25;8.73;;;7.00;;
956;SDS011;465;48.802;9.224;2022-10-13T12:29:53;11.23;;;7.20;;
956;SDS011;465;48.802;9.224;2022-10-13T12:32:20;12.20;;;6.87;;
956;SDS011;465;48.802;9.224;2022-10-13T12:34:48;12.30;;;8.70;;
956;SDS011;465;48.802;9.224;2022-10-13T12:37:20;9.70;;;6.90;;
956;SDS011;465;48.802;9.224;2022-10-13T12:39:54;9.53;;;7.83;;
956;SDS011;465;48.802;9.224;2022-10-13T12:42:23;8.80;;;6.50;;
956;SDS011;465;48.802;9.224;2022-10-13T12:44:52;8.83;;;7.30;;
956;SDS011;465;48.802;9.224;2022-10-13T12:53:07;10.30;;;7.10;;
956;SDS011;465;48.802;9.224;2022-10-13T12:55:44;9.80;;;6.57;;
956;SDS011;465;48.802;9.224;2022-10-13T12:58:20;13.93;;;6.93;;
956;SDS011;465;48.802;9.224;2022-10-13T13:03:52;9.00;;;6.10;;
956;SDS011;465;48.802;9.224;2022-10-13T13:06:22;6.97;;;6.27;;
956;SDS011;465;48.802;9.224;2022-10-13T13:09:13;10.33;;;5.83;;
956;SDS011;465;48.802;9.224;2022-10-13T13:11:45;8.83;;;6.77;;
956;SDS011;465;48.802;9.224;2022-10-13T13:14:23;10.23;;;6.97;;
956;SDS011;465;48.802;9.224;2022-10-13T13:17:01;9.80;;;6.53;;
956;SDS011;465;48.802;9.224;2022-10-13T13:19:33;9.60;;;6.37;;
956;SDS011;465;48.802;9.224;2022-10-13T13:22:01;12.03;;;8.20;;
956;SDS011;465;48.802;9.224;2022-10-13T13:24:30;10.23;;;7.10;;
956;SDS011;465;48.802;9.224;2022-10-13T13:26:57;14.77;;;8.90;;
956;SDS011;465;48.802;9.224;2022-10-13T13:29:23;11.43;;;7.00;;
956;SDS011;465;48.802;9.224;2022-10-13T13:31:50;11.07;;;8.07;;
956;SDS011;465;48.802;9.224;2022-10-13T13:34:17;12.17;;;7.00;;
956;SDS011;465;48.802;9.224;2022-10-13T13:36:44;10.00;;;6.27;;
956;SDS011;465;48.802;9.224;2022-10-13T13:39:13;7.20;;;6.50;;
956;SDS011;465;48.802;9.224;2022-10-13T13:41:43;9.63;;;7.37;;
956;SDS011;465;48.802;9.224;2022-10-13T13:44:11;7.77;;;6.27;;
956;SDS011;465;48.802;9.224;2022-10-13T13:46:39;8.37;;;6.87;;
956;SDS011;465;48.802;9.224;2022-10-13T13:49:07;8.50;;;6.97;;
956;SDS011;465;48.802;9.224;2022-10-13T13:51:35;12.73;;;7.70;;
956;SDS011;465;48.802;9.224;2022-10-13T13:54:02;7.70;;;6.90;;
956;SDS011;465;48.802;9.224;2022-10-13T13:56:29;9.43;;;7.10;;
956;SDS011;465;48.802;9.224;2022-10-13T13:58:57;9.77;;;7.70;;
956;SDS011;465;48.802;9.224;2022-10-13T14:01:26;16.70;;;8.23;;
956;SDS011;465;48.802;9.224;2022-10-13T14:03:53;11.13;;;7.37;;
956;SDS011;465;48.802;9.224;2022-10-13T14:06:20;11.70;;;7.40;;
956;SDS011;465;48.802;9.224;2022-10-13T14:08:47;10.13;;;6.97;;
956;SDS011;465;48.802;9.224;2022-10-13T14:11:14;13.63;;;9.27;;
956;SDS011;465;48.802;9.224;2022-10-13T14:13:41;11.90;;;8.50;;
956;SDS011;465;48.802;9.224;2022-10-13T14:16:10;12.10;;;8.47;;
956;SDS011;465;48.802;9.224;2022-10-13T14:18:41;12.83;;;8.10;;
956;SDS011;465;48.802;9.224;2022-10-13T14:21:07;9.90;;;7.73;;
956;SDS011;465;48.802;9.224;2022-10-13T14:23:34;12.27;;;8.03;;
956;SDS011;465;48.802;9.224;2022-10-13T14:26:03;12.60;;;8.17;;
956;SDS011;465;48.802;9.224;2022-10-13T14:28:31;11.40;;;8.13;;
956;SDS011;465;48.802;9.224;2022-10-13T14:30:58;11.80;;;8.50;;
956;SDS011;465;48.802;9.224;2022-10-13T14:33:26;13.03;;;8.37;;
956;SDS011;465;48.802;9.224;2022-10-13T14:35:57;12.20;;;8.00;;
956;SDS011;465;48.802;9.224;2022-10-13T14:38:24;13.30;;;8.30;;
956;SDS011;465;48.802;9.224;2022-10-13T14:40:51;14.40;;;8.30;;
956;SDS011;465;48.802;9.224;2022-10-13T14:43:22;14.97;;;8.97;;
956;SDS011;465;48.802;9.224;2022-10-13T14:45:49;13.63;;;10.40;;
956;SDS011;465;48.802;9.224;2022-10-13T14:48:16;17.53;;;8.00;;
956;SDS011;465;48.802;9.224;2022-10-13T14:50:44;10.60;;;8.50;;
956;SDS011;465;48.802;9.224;2022-10-13T14:53:10;9.83;;;8.83;;
956;SDS011;465;48.802;9.224;2022-10-13T14:55:39;11.90;;;8.87;;
956;SDS011;465;48.802;9.224;2022-10-13T14:58:07;10.77;;;7.90;;
956;SDS011;465;48.802;9.224;2022-10-13T15:00:33;8.47;;;7.60;;
956;SDS011;465;48.802;9.224;2022-10-13T15:03:00;12.20;;;8.97;;
956;SDS011;465;48.802;9.224;2022-10-13T15:05:27;15.97;;;8.20;;
956;SDS011;465;48.802;9.224;2022-10-13T15:07:55;8.80;;;7.53;;
956;SDS011;465;48.802;9.224;2022-10-13T15:10:22;10.20;;;7.80;;
956;SDS011;465;48.802;9.224;2022-10-13T15:12:48;15.50;;;8.00;;
956;SDS011;465;48.802;9.224;2022-10-13T15:15:15;9.57;;;8.10;;
956;SDS011;465;48.802;9.224;2022-10-13T15:17:42;11.60;;;8.10;;
956;SDS011;465;48.802;9.224;2022-10-13T15:20:09;9.17;;;7.27;;
956;SDS011;465;48.802;9.224;2022-10-13T15:22:36;14.40;;;8.07;;
956;SDS011;465;48.802;9.224;2022-10-13T15:25:04;10.43;;;6.93;;
956;SDS011;465;48.802;9.224;2022-10-13T15:27:34;11.90;;;8.63;;
956;SDS011;465;48.802;9.224;2022-10-13T15:30:03;13.20;;;8.30;;
956;SDS011;465;48.802;9.224;2022-10-13T15:32:30;11.90;;;8.40;;
956;SDS011;465;48.802;9.224;2022-10-13T15:34:57;11.93;;;9.37;;
956;SDS011;465;48.802;9.224;2022-10-13T15:37:24;10.23;;;8.87;;
956;SDS011;465;48.802;9.224;2022-10-13T15:39:51;8.30;;;7.50;;
956;SDS011;465;48.802;9.224;2022-10-13T15:42:19;10.17;;;8.73;;
956;SDS011;465;48.802;9.224;2022-10-13T15:44:46;9.73;;;8.43;;
956;SDS011;465;48.802;9.224;2022-10-13T15:47:12;17.00;;;8.90;;
956;SDS011;465;48.802;9.224;2022-10-13T15:49:39;13.23;;;9.20;;
956;SDS011;465;48.802;9.224;2022-10-13T15:52:06;12.60;;;9.60;;
956;SDS011;465;48.802;9.224;2022-10-13T15:54:33;11.10;;;9.30;;
956;SDS011;465;48.802;9.224;2022-10-13T15:56:59;10.43;;;9.23;;
956;SDS011;465;48.802;9.224;2022-10-13T15:59:27;13.83;;;10.00;;
956;SDS011;465;48.802;9.224;2022-10-13T16:01:54;11.97;;;9.57;;
956;SDS011;465;48.802;9.224;2022-10-13T16:04:21;10.90;;;8.37;;
956;SDS011;465;48.802;9.224;2022-10-13T16:06:49;12.20;;;10.43;;
956;SDS011;465;48.802;9.224;2022-10-13T16:09:15;12.37;;;11.07;;
956;SDS011;465;48.802;9.224;2022-10-13T16:11:42;15.03;;;10.67;;
956;SDS011;465;48.802;9.224;2022-10-13T16:14:09;15.27;;;10.33;;
956;SDS011;465;48.802;9.224;2022-10-13T16:16:37;18.90;;;11.20;;
956;SDS011;465;48.802;9.224;2022-10-13T16:19:04;12.87;;;10.30;;